createdAt,value
2018-08-20T00:04:20.044Z,15.38
2018-08-20T00:10:23.750Z,19.37
2018-08-20T00:16:27.155Z,18.70
2018-08-20T00:22:30.685Z,15.53
2018-08-20T00:28:33.992Z,17.48
2018-08-20T00:34:38.605Z,17.67
2018-08-20T00:40:42.628Z,17.55
2018-08-20T00:46:46.488Z,15.28
2018-08-20T00:52:50.030Z,14.33
2018-08-20T00:58:53.738Z,14.47
2018-08-20T01:04:57.964Z,15.58
2018-08-20T01:11:01.495Z,14.60
2018-08-20T01:17:05.177Z,14.20
2018-08-20T01:23:08.953Z,13.48
2018-08-20T01:29:12.435Z,12.82
2018-08-20T01:35:25.207Z,14.38
2018-08-20T01:41:28.650Z,15.00
2018-08-20T01:47:32.143Z,11.57
2018-08-20T01:53:35.689Z,16.82
2018-08-20T01:59:39.080Z,18.92
2018-08-20T02:05:42.534Z,20.72
2018-08-20T02:12:54.977Z,17.30
2018-08-20T02:18:58.537Z,17.65
2018-08-20T02:25:01.901Z,18.55
2018-08-20T02:31:05.638Z,19.75
2018-08-20T02:37:09.771Z,18.77
2018-08-20T02:43:13.314Z,20.02
2018-08-20T02:49:17.410Z,19.20
2018-08-20T02:55:20.677Z,17.40
2018-08-20T03:01:24.252Z,18.12
2018-08-20T03:07:28.801Z,16.80
2018-08-20T03:13:33.477Z,17.45
2018-08-20T03:19:37.016Z,17.60
2018-08-20T03:25:41.115Z,17.50
2018-08-20T03:31:45.527Z,22.10
2018-08-20T03:37:49.328Z,20.10
2018-08-20T03:43:52.915Z,19.90
2018-08-20T03:49:56.455Z,21.65
2018-08-20T03:55:59.957Z,20.90
2018-08-20T04:02:04.762Z,21.62
2018-08-20T04:08:08.147Z,21.37
2018-08-20T04:14:11.992Z,21.23
2018-08-20T04:20:15.637Z,21.00
2018-08-20T04:26:20.684Z,20.43
2018-08-20T04:32:24.279Z,20.37
2018-08-20T04:38:27.646Z,20.50
2018-08-20T04:44:31.342Z,19.67
2018-08-20T04:50:35.383Z,16.07
2018-08-20T04:56:38.911Z,15.88
2018-08-20T05:02:42.327Z,18.77
2018-08-20T05:08:46.082Z,18.50
2018-08-20T05:14:49.683Z,18.05
2018-08-20T05:20:53.229Z,16.70
2018-08-20T05:26:56.456Z,16.35
2018-08-20T05:33:00.638Z,16.37
2018-08-20T05:39:06.310Z,14.63
2018-08-20T05:45:11.297Z,15.00
2018-08-20T05:51:14.840Z,17.67
2018-08-20T05:57:18.252Z,17.53
2018-08-20T06:03:22.109Z,18.07
2018-08-20T06:09:25.664Z,18.00
2018-08-20T06:15:29.377Z,19.13
2018-08-20T06:21:33.326Z,20.33
2018-08-20T06:27:36.991Z,17.37
2018-08-20T06:33:40.582Z,17.87
2018-08-20T06:39:44.144Z,18.63
2018-08-20T06:45:47.833Z,21.00
2018-08-20T06:51:51.838Z,15.53
2018-08-20T06:58:02.406Z,18.33
2018-08-20T07:04:06.176Z,15.70
2018-08-20T07:10:12.508Z,17.27
2018-08-20T07:16:16.249Z,17.60
2018-08-20T07:22:19.587Z,19.10
2018-08-20T07:28:23.523Z,17.53
2018-08-20T07:34:27.210Z,25.33
2018-08-20T07:40:30.794Z,17.93
2018-08-20T07:46:34.322Z,25.13
2018-08-20T07:52:38.015Z,23.57
2018-08-20T07:58:41.539Z,21.03
2018-08-20T08:04:45.067Z,21.90
2018-08-20T08:10:49.543Z,24.07
2018-08-20T08:16:53.135Z,22.97
2018-08-20T08:22:56.532Z,22.77
2018-08-20T08:29:00.120Z,24.50
2018-08-20T08:35:04.116Z,24.83
2018-08-20T08:41:07.455Z,24.57
2018-08-20T08:47:10.996Z,30.50
2018-08-20T08:53:14.719Z,25.00
2018-08-20T08:59:18.622Z,28.27
2018-08-20T09:05:27.889Z,27.95
2018-08-20T09:11:31.515Z,25.43
2018-08-20T09:17:34.939Z,30.72
2018-08-20T09:23:38.809Z,29.48
2018-08-20T09:29:42.322Z,28.35
2018-08-20T09:35:46.616Z,33.15
2018-08-20T09:41:50.180Z,31.93
2018-08-20T09:47:54.397Z,35.95
2018-08-20T09:53:58.365Z,31.82
2018-08-20T10:00:02.644Z,39.65
2018-08-20T10:06:06.727Z,32.80
2018-08-20T10:12:15.330Z,35.52
2018-08-20T10:18:19.327Z,35.85
2018-08-20T10:24:27.320Z,34.03
2018-08-20T10:30:32.146Z,33.92
2018-08-20T10:36:37.572Z,32.13
2018-08-20T10:42:41.785Z,34.33
2018-08-20T10:48:47.149Z,39.95
2018-08-20T10:54:51.745Z,36.03
2018-08-20T11:00:55.461Z,37.00
2018-08-20T11:07:00.089Z,37.33
2018-08-20T11:13:04.981Z,31.50
2018-08-20T11:19:10.984Z,37.15
2018-08-20T11:25:15.547Z,32.98
2018-08-20T11:31:20.216Z,26.68
2018-08-20T11:37:25.074Z,30.35
2018-08-20T11:43:29.499Z,27.20
2018-08-20T11:49:35.371Z,26.90
2018-08-20T11:55:39.603Z,25.35
2018-08-20T12:01:43.371Z,24.82
2018-08-20T12:07:48.469Z,24.30
2018-08-20T12:13:52.754Z,25.40
2018-08-20T12:19:56.565Z,23.95
2018-08-20T12:26:01.746Z,25.17
2018-08-20T12:32:05.514Z,28.10
2018-08-20T12:38:09.878Z,21.45
2018-08-20T12:44:13.218Z,20.37
2018-08-20T12:50:16.621Z,24.25
2018-08-20T12:56:20.050Z,27.25
2018-08-20T13:02:23.445Z,33.65
2018-08-20T13:08:26.832Z,30.08
2018-08-20T13:14:30.239Z,32.25
2018-08-20T13:20:34.388Z,35.98
2018-08-20T13:26:37.932Z,31.57
2018-08-20T13:32:41.284Z,26.95
2018-08-20T13:38:44.776Z,21.68
2018-08-20T13:44:48.315Z,19.07
2018-08-20T13:50:54.075Z,17.50
2018-08-20T13:56:57.520Z,18.15
2018-08-20T14:03:01.062Z,17.95
2018-08-20T14:09:07.299Z,17.75
2018-08-20T14:15:12.120Z,18.45
2018-08-20T14:21:15.879Z,19.30
2018-08-20T14:27:19.212Z,17.32
2018-08-20T14:33:22.545Z,18.37
2018-08-20T14:39:26.271Z,17.27
2018-08-20T14:45:35.436Z,20.25
2018-08-20T14:51:38.821Z,19.50
2018-08-20T14:57:42.190Z,17.65
2018-08-20T15:03:45.522Z,17.82
2018-08-20T15:09:49.528Z,15.48
2018-08-20T15:15:53.287Z,13.43
2018-08-20T15:21:56.722Z,10.78
2018-08-20T15:28:02.650Z,9.23
2018-08-20T15:34:14.989Z,9.53
2018-08-20T15:40:23.849Z,4.75
2018-08-20T15:46:27.392Z,3.20
2018-08-20T15:52:30.990Z,3.27
2018-08-20T15:58:35.742Z,2.58
2018-08-20T16:04:39.293Z,2.22
2018-08-20T16:10:42.755Z,2.00
2018-08-20T16:16:47.876Z,2.80
2018-08-20T16:22:51.891Z,2.55
2018-08-20T16:28:56.413Z,4.08
2018-08-20T16:35:00.528Z,2.05
2018-08-20T16:41:04.568Z,1.62
2018-08-20T16:47:08.142Z,1.60
2018-08-20T16:53:11.914Z,1.65
2018-08-20T16:59:15.277Z,1.80
2018-08-20T17:05:19.842Z,2.30
2018-08-20T17:11:23.447Z,2.10
2018-08-20T17:17:27.341Z,4.90
2018-08-20T17:23:34.485Z,2.55
2018-08-20T17:29:38.457Z,2.20
2018-08-20T17:35:43.294Z,1.75
2018-08-20T17:41:47.439Z,3.92
2018-08-20T17:47:52.026Z,1.90
2018-08-20T17:53:59.863Z,3.77
2018-08-20T18:00:44.303Z,3.27
2018-08-20T18:06:53.147Z,2.85
2018-08-20T18:12:56.921Z,3.30
2018-08-20T18:19:00.813Z,2.30
2018-08-20T18:25:04.700Z,2.45
2018-08-20T18:31:11.029Z,1.82
2018-08-20T18:37:14.497Z,1.85
2018-08-20T18:43:18.213Z,1.77
2018-08-20T18:49:22.250Z,2.52
2018-08-20T18:55:25.927Z,1.77
2018-08-20T19:01:29.414Z,1.95
2018-08-20T19:07:32.768Z,2.00
2018-08-20T19:13:36.195Z,3.33
2018-08-20T19:19:44.390Z,1.95
2018-08-20T19:25:48.205Z,1.90
2018-08-20T19:31:52.243Z,1.42
2018-08-20T19:37:55.571Z,1.60
2018-08-20T19:43:59.671Z,1.75
2018-08-20T19:50:04.877Z,1.92
2018-08-20T19:56:13.478Z,1.65
2018-08-20T20:02:19.453Z,1.75
2018-08-20T20:08:22.868Z,3.20
2018-08-20T20:14:33.584Z,2.90
2018-08-20T20:20:37.476Z,2.47
2018-08-20T20:26:41.767Z,2.83
2018-08-20T20:32:46.340Z,5.90
2018-08-20T20:38:50.281Z,2.95
2018-08-20T20:44:55.029Z,1.70
2018-08-20T20:50:59.199Z,2.27
2018-08-20T20:57:03.684Z,2.20
2018-08-20T21:03:10.282Z,2.92
2018-08-20T21:09:13.938Z,2.60
2018-08-20T21:15:17.970Z,2.25
2018-08-20T21:21:22.301Z,2.00
2018-08-20T21:27:28.168Z,2.50
2018-08-20T21:33:33.532Z,2.10
2018-08-20T21:39:37.383Z,2.10
2018-08-20T21:45:40.944Z,2.00
2018-08-20T21:51:50.172Z,2.20
2018-08-20T21:57:57.264Z,2.70
2018-08-20T22:04:03.929Z,2.10
2018-08-20T22:10:08.591Z,2.33
2018-08-20T22:16:18.030Z,2.20
2018-08-20T22:22:25.149Z,2.30
2018-08-20T22:28:28.594Z,2.40
2018-08-20T22:34:31.920Z,2.27
2018-08-20T22:40:35.355Z,3.12
2018-08-20T22:46:38.793Z,2.00
2018-08-20T22:52:43.984Z,2.10
2018-08-20T22:58:48.545Z,2.00
2018-08-20T23:04:57.337Z,1.70
2018-08-20T23:11:00.939Z,1.77
2018-08-20T23:17:04.447Z,1.90
2018-08-20T23:23:07.848Z,2.83
2018-08-20T23:29:11.515Z,2.27
2018-08-20T23:35:15.103Z,1.62
2018-08-20T23:41:18.470Z,2.00
2018-08-20T23:47:21.863Z,3.42
2018-08-20T23:53:25.770Z,2.30
2018-08-20T23:59:29.026Z,3.65
